Adams Gardens, Texas
Current Conditions -  °F | °C
As of 6:52 PM on Saturday 25 Oct 2014 (Local Time) from KHRL Reporting Station
Clear Clear  
Wind Chill: 76°   Ceiling: Unl
Heat Index: 76°   Visibility: 10mi
Dew Point: 66°   Wind: 9mph
Humidity: 71%   Direction: 90°E
Pressure: 30.08"   Gusts: NA
Location:  26.2089°N, 97.6849°W
Report Text: KHRL 252352Z 09008KT 10SM CLR 24/19 A3008 RMK AO2 SLP185 T02440189 10300 20244 53003
Loading
Personal Weather Stations






























Interactive Weather Map
Tropical Storm Tracking
New forecast layout! Learn more

10-Day Weather Forecast

Advertisements
Track Severe Weather on mobile